Goldfield, Nevada Weather observations

Data are for observation ending at time listed.
 Day   Time    Ave.   Ave.  Ave.  Vector   Max.   Stn.    Total    Solar   Ave.  
  of    of     Air    Rel.  Wind   Wind    Wind   Baro.  Precip.   Rad.    Soil  
Year   Day     Temp.  Hum.  Speed  Dir.    Gust   Pres.                    Temp. 
2017   (PST)    F      %     mph   deg.    mph     mb.     in.     W/m2     F   
------------------------------------------------------------------------------
  19   12:30   38.7    71    6.9   188     11.2   819.0    0.00     322    31.6
  19   12:40   38.7    71    6.5   182      9.5   818.9    0.00     394    31.7
  19   12:50   38.7    72    6.3   179     10.6   818.9    0.00     319    31.7
  19   13:00   38.4    74    7.7   180     11.3   818.8    0.00     333    31.8
  19   13:10   38.3    74    7.9   193     10.9   818.6    0.00     216    31.7
  19   13:20   38.1    76    8.7   195     11.8   818.6    0.00     405    31.7
  19   13:30   39.5    72    8.8   196     12.5   818.6    0.00     569    31.8
  19   13:40   39.6    72    8.4   177     12.3   818.6    0.00     533    31.7
  19   13:50   39.9    71    7.9   176     11.9   818.5    0.00     471    31.7
  19   14:00   39.8    67    6.8   174     10.2   818.4    0.00     303    31.7
  19   14:10   40.1    64    8.2   187     12.7   818.3    0.00     434    31.7
  19   14:20   41.1    61    7.4   192     10.0   818.3    0.00     404    31.7
  19   14:30   41.1    58    6.6   192      9.5   818.4    0.00     416    31.7
  19   14:40   41.2    59    6.0   178      9.4   818.3    0.00     368    31.7
  19   14:50   41.0    59    6.1   156      9.8   818.2    0.00     368    31.7
  19   15:00   41.0    66    6.1   140     10.2   818.1    0.00     336    31.7
  19   15:10   41.4    58    5.4   174      8.5   818.1    0.00     233    31.7
  19   15:20   40.3    59    5.4   180      8.8   818.1    0.00     129    31.7
  19   15:30   39.8    63    4.7   182      8.2   818.0    0.00      85    31.8
  19   15:40   39.4    64    4.9   180      8.2   818.0    0.00      46    31.9
  19   15:50   38.8    65    6.9   185      9.3   818.0    0.00      37    31.9
  19   16:00   38.3    66    6.1   196      9.4   818.0    0.00      45    31.9
  19   16:10   38.0    67    5.5   203      7.6   818.0    0.00      46    31.9
  19   16:20   37.7    68    6.2   212      8.8   817.9    0.00      41    31.9
  19   16:30   37.3    71    6.8   208      9.4   818.0    0.00      26    31.9
  19   16:40   36.5    74    6.8   204      8.3   818.0    0.00      16    31.9
  19   16:50   36.3    74    6.0   204      8.8   818.1    0.00      10    31.9
  19   17:00   36.1    75    5.1   211      6.1   818.1    0.00       4    31.9
  19   17:10   36.0    74    5.5   218      8.0   818.2    0.00       4    31.9
  19   17:20   36.5    72    6.8   213      9.4   818.2    0.00       0    31.9
  19   17:30   36.1    69   12.3   202     21.8   818.3    0.00       0    31.9
  19   17:40   34.6    69   15.5   228     25.5   818.4    0.00       0    31.9
  19   17:50   33.9    73   15.3   228     23.0   818.5    0.00       0    31.9
  19   18:00   33.3    78   14.2   225     19.7   818.5    0.00       0    31.9
  19   18:10   33.0    80   15.7   217     23.9   818.5    0.00       0    31.9
  19   18:20   32.7    79   12.9   199     19.0   818.4    0.00       0    31.9
  19   18:30   32.8    77   10.5   203     14.7   818.4    0.00       0    32.0
  19   18:40   33.1    74    6.7   192      9.9   818.3    0.00       0    31.9
  19   18:50   32.8    74    5.5   185     11.8   818.3    0.00       0    31.9
  19   19:00   32.6    74    7.3   215     12.1   818.3    0.00       0    31.9
  19   19:10   33.5    68   10.3   211     13.8   818.4    0.00       0    31.9
  19   19:20   33.4    68    9.5   206     12.3   818.4    0.00       0    31.9
  19   19:30   33.2    69    8.0   198     11.8   818.4    0.00       0    31.9
  19   19:40   33.1    69    7.5   123     14.2   818.4    0.00       0    31.9
  19   19:50   32.7    69    5.8   156      9.5   818.5    0.00       0    31.9
  19   20:00   32.0    73    6.5   150     10.3   818.4    0.00       0    31.9
  19   20:10   31.6    79    7.1   130     12.2   818.3    0.00       0    31.9
  19   20:20   30.7    85    7.4   126     11.8   818.2    0.00       0    31.9
  19   20:30   30.3    89    7.0   142     11.0   818.3    0.00       0    31.9
  19   20:40   30.1    92    8.7   157     12.7   818.3    0.00       0    31.9
  19   20:50   30.1    92    7.4   151     13.2   818.2    0.00       0    31.9
  19   21:00   30.0    92    8.3   148     11.9   818.1    0.00       0    31.9
  19   21:10   29.8    94    7.6   135     14.2   818.0    0.00       0    32.0
  19   21:20   29.8    94    5.4   173      7.7   817.9    0.00       0    31.9
  19   21:30   30.7    91    5.9   179      9.0   817.8    0.00       0    31.9
  19   21:40   31.3    87    4.9   186      7.5   817.6    0.00       0    32.0
  19   21:50   31.1    87    6.5   193      8.7   817.5    0.00       0    31.9
  19   22:00   31.3    88    8.5   199     12.7   817.5    0.00       0    32.0
  19   22:10   31.5    88    8.5   185     13.4   817.4    0.00       0    31.9
  19   22:20   31.8    90   11.2   191     15.4   817.4    0.00       0    31.9
  19   22:30   32.0    91    9.8   188     15.9   817.3    0.00       0    31.9
  19   22:40   32.1    93    9.7   191     13.2   817.3    0.00       0    31.9
  19   22:50   32.2    93    7.2   171     11.4   817.2    0.00       0    31.9
  19   23:00   32.2    94    7.7   165     16.7   817.1    0.00       0    31.9
  19   23:10   32.5    94    7.9   163     13.2   817.0    0.00       0    31.9
  19   23:20   32.5    94    8.4   166     13.6   816.9    0.00       0    31.9
  19   23:30   32.3    94   10.6   156     15.1   816.9    0.00       0    31.9
  19   23:40   32.1    95    7.6   146     14.0   816.7    0.00       0    31.9
  19   23:50   31.9    97    7.6   148     12.1   816.6    0.00       0    31.9
  20    0:00   31.8    98    7.7   137     12.5   816.5    0.00       0    31.9
  20    0:10   31.9    98    8.4   150     14.7   816.6    0.00       0    31.9
  20    0:20   32.0    98   10.4   156     16.4   816.5    0.00       0    31.9
  20    0:30   32.1    96   11.2   146     19.8   816.4    0.00       0    31.9
  20    0:40   32.1    95   11.2   147     18.0   816.2    0.00       0    31.9
  20    0:50   32.0    94   11.6   144     18.6   816.1    0.00       0    31.9
  20    1:00   31.9    94   12.6   141     19.1   816.0    0.00       0    32.0
  20    1:10   31.7    96   11.8   137     17.1   815.6    0.00       0    31.9
  20    1:20   31.4    96   11.1   136     18.4   815.7    0.00       0    31.9
  20    1:30   31.3    97   11.7   149     19.5   815.9    0.00       0    32.0
  20    1:40   31.2    98   11.4   134     16.2   815.5    0.00       0    31.9
  20    1:50   31.1    98    9.3   139     15.0   815.5    0.00       0    32.0
  20    2:00   30.9    98   11.4   146     17.2   815.3    0.00       0    31.9
  20    2:10   30.7    98   12.0   147     17.8   815.0    0.00       0    31.9
  20    2:20   30.8    98   11.7   145     18.5   815.1    0.00       0    32.0
  20    2:30   30.7    97   12.6   152     18.9   815.0    0.00       0    32.0
  20    2:40   30.8    96   14.2   155     22.1   814.9    0.00       0    31.9
  20    2:50   30.7    94   13.1   149     22.1   814.5    0.00       0    31.9
  20    3:00   30.5    95   12.8   135     19.6   814.1    0.00       0    31.9
  20    3:10   30.2    96   12.8   141     19.2   813.8    0.00       0    31.9
  20    3:20   30.0    96   12.2   144     21.5   813.8    0.00       0    31.9
  20    3:30   30.0    96   14.1   150     24.4   813.9    0.00       0    31.9
  20    3:40   30.0    96   15.2   151     24.2   814.0    0.00       0    31.9
  20    3:50   29.8    96   15.9   154     22.6   814.0    0.00       0    31.9
  20    4:00   29.7    96   15.7   151     23.4   813.8    0.00       0    31.9
  20    4:10   29.5    96   16.1   154     26.7   813.6    0.00       0    31.9
  20    4:20   29.3    96   15.3   140     23.9   813.5    0.00       0    31.9
  20    4:30   29.1    97   13.7   128     22.0   813.1    0.00       0    31.9
  20    4:40   29.0    97   13.4   125     23.5   812.8    0.00       0    31.9
  20    4:50   29.0    97   12.7   136     19.6   812.4    0.00       0    31.9
  20    5:00   28.9    97   14.1   152     22.1   812.2    0.00       0    31.9
  20    5:10   28.8    98   14.6   152     21.6   812.0    0.00       0    31.9
  20    5:20   28.9    97   15.8   158     23.5   812.0    0.00       0    31.9
  20    5:30   29.0    96   15.1   152     23.9   811.9    0.00       0    31.9
  20    5:40   29.0    96   16.8   152     24.2   811.9    0.00       0    31.9
  20    5:50   29.0    96   15.0   159     23.6   812.2    0.00       0    31.9
  20    6:00   28.8    97   16.9   156     24.0   812.3    0.00       0    31.9
  20    6:10   28.8    98   15.5   154     24.3   812.2    0.00       0    31.9
  20    6:20   28.8    98   15.7   154     23.5   812.2    0.00       0    31.9
  20    6:30   28.7    99   15.5   148     23.5   812.2    0.00       0    31.9
  20    6:40   28.6   100   14.9   149     22.0   812.2    0.00       0    31.9
  20    6:50   28.7   100   16.0   154     25.6   812.1    0.00       1    31.9
  20    7:00   28.8   100   17.1   154     26.6   811.9    0.00       1    32.0
  20    7:10   29.0   100   16.9   156     24.3   811.7    0.00       3    31.9
  20    7:20   29.0   100   16.0   154     22.8   811.4    0.00       4    31.9
  20    7:30   28.9   100   13.3   148     21.9   811.2    0.00       8    31.9
  20    7:40   28.8   100   14.3   151     20.4   811.7    0.00       8    31.9
  20    7:50   29.0   100   13.2   140     20.2   811.4    0.00      11    31.9
  20    8:00   29.0   100   12.2   152     20.1   811.8    0.00      18    31.9
  20    8:10   29.0   100   11.0   135     18.2   811.7    0.00      21    31.9
  20    8:20   29.0   100   11.2   140     17.2   811.5    0.00      27    31.9
  20    8:30   29.0   100   12.1   130     18.9   811.1    0.00      37    31.9
  20    8:40   29.0   100   11.2   135     18.5   810.8    0.00      32    31.9
  20    8:50   29.0   100   14.9   150     22.2   810.9    0.00      28    31.9
  20    9:00   29.1   100   13.1   142     23.1   810.6    0.00      28    31.9
  20    9:10   29.0   100   13.8   149     20.2   810.4    0.00      21    31.9
  20    9:20   29.0   100   13.6   150     20.8   810.3    0.00      32    31.9
  20    9:30   29.2   100   13.7   146     19.6   809.9    0.00      78    31.9
  20    9:40   29.5   100   13.5   151     21.5   809.9    0.00     144    31.9
  20    9:50   29.6   100   12.8   145     20.6   809.8    0.00     158    31.8
  20   10:00   29.8   100   13.7   143     22.4   809.5    0.00     195    31.9
  20   10:10   29.8   100   15.4   154     25.0   809.5    0.00     193    31.9
  20   10:20   29.8   100   15.3   150     25.0   809.4    0.00     164    31.9
  20   10:30   29.8   100   17.4   149     25.8   809.1    0.00     212    31.9
  20   10:40   29.9   100   16.1   149     26.4   809.1    0.00     177    31.9
  20   10:50   29.9   100   14.6   144     22.9   809.0    0.00     164    31.9
  20   11:00   30.1   100   14.1   144     22.2   808.7    0.00     146    31.9
  20   11:10   30.3   100   16.1   145     25.4   808.5    0.00     183    31.9
  20   11:20   30.3   100   16.5   151     26.5   808.5    0.00     186    31.9
  20   11:30   30.5   100   15.9   148     28.0   808.5    0.00     205    31.9
  20   11:40   30.7   100   16.7   150     26.4   808.5    0.01     280    31.9
  20   11:50   30.8   100   16.8   150     27.7   808.5    0.00     236    31.9
  20   12:00   30.7   100   16.3   145     26.2   808.3    0.00     287    31.9
  20   12:10   30.7   100   16.0   148     24.5   808.0    0.00     261    31.9
  20   12:20   30.6   100   16.6   154     26.5   807.6    0.00     267    31.9

Return to Goldfield, Nevada graphs page.


Western Regional Climate Center,wrcc@dri.edu